sensor_id;sensor_type;location;lat;lon;timestamp;P1;durP1;ratioP1;P2;durP2;ratioP2
38226;SDS011;24026;49.446;8.576;2023-02-28T00:00:55;125.88;;;111.95;;
38226;SDS011;24026;49.446;8.576;2023-02-28T00:03:16;126.68;;;110.97;;
38226;SDS011;24026;49.446;8.576;2023-02-28T00:05:36;125.75;;;111.72;;
38226;SDS011;24026;49.446;8.576;2023-02-28T00:07:57;123.35;;;109.00;;
38226;SDS011;24026;49.446;8.576;2023-02-28T00:10:19;125.93;;;111.57;;
38226;SDS011;24026;49.446;8.576;2023-02-28T00:12:42;122.50;;;107.20;;
38226;SDS011;24026;49.446;8.576;2023-02-28T00:15:07;125.88;;;111.82;;
38226;SDS011;24026;49.446;8.576;2023-02-28T00:17:28;124.30;;;109.72;;
38226;SDS011;24026;49.446;8.576;2023-02-28T00:19:49;125.10;;;109.05;;
38226;SDS011;24026;49.446;8.576;2023-02-28T00:22:11;124.05;;;110.32;;
38226;SDS011;24026;49.446;8.576;2023-02-28T00:24:31;125.43;;;111.55;;
38226;SDS011;24026;49.446;8.576;2023-02-28T00:26:51;123.95;;;108.68;;
38226;SDS011;24026;49.446;8.576;2023-02-28T00:29:12;123.07;;;106.43;;
38226;SDS011;24026;49.446;8.576;2023-02-28T00:31:32;125.60;;;109.53;;
38226;SDS011;24026;49.446;8.576;2023-02-28T00:33:52;125.68;;;111.85;;
38226;SDS011;24026;49.446;8.576;2023-02-28T00:36:13;126.05;;;110.38;;
38226;SDS011;24026;49.446;8.576;2023-02-28T00:38:33;124.25;;;107.57;;
38226;SDS011;24026;49.446;8.576;2023-02-28T00:40:54;123.30;;;109.65;;
38226;SDS011;24026;49.446;8.576;2023-02-28T00:43:15;126.30;;;110.28;;
38226;SDS011;24026;49.446;8.576;2023-02-28T00:45:35;122.68;;;108.85;;
38226;SDS011;24026;49.446;8.576;2023-02-28T00:47:55;123.68;;;109.68;;
38226;SDS011;24026;49.446;8.576;2023-02-28T00:50:17;123.25;;;109.65;;
38226;SDS011;24026;49.446;8.576;2023-02-28T00:52:38;122.22;;;108.43;;
38226;SDS011;24026;49.446;8.576;2023-02-28T00:54:58;122.72;;;106.80;;
38226;SDS011;24026;49.446;8.576;2023-02-28T00:57:19;122.63;;;108.47;;
38226;SDS011;24026;49.446;8.576;2023-02-28T00:59:39;121.72;;;106.70;;
38226;SDS011;24026;49.446;8.576;2023-02-28T01:02:00;122.32;;;108.57;;
38226;SDS011;24026;49.446;8.576;2023-02-28T01:04:20;122.25;;;107.28;;
38226;SDS011;24026;49.446;8.576;2023-02-28T01:06:41;122.13;;;106.68;;
38226;SDS011;24026;49.446;8.576;2023-02-28T01:09:01;121.72;;;108.03;;
38226;SDS011;24026;49.446;8.576;2023-02-28T01:11:23;121.35;;;106.85;;
38226;SDS011;24026;49.446;8.576;2023-02-28T01:13:44;121.10;;;107.78;;
38226;SDS011;24026;49.446;8.576;2023-02-28T01:16:06;121.20;;;106.07;;
38226;SDS011;24026;49.446;8.576;2023-02-28T01:18:26;121.38;;;106.18;;
38226;SDS011;24026;49.446;8.576;2023-02-28T01:20:48;120.05;;;105.03;;
38226;SDS011;24026;49.446;8.576;2023-02-28T01:23:09;120.75;;;106.45;;
38226;SDS011;24026;49.446;8.576;2023-02-28T01:25:29;121.22;;;106.65;;
38226;SDS011;24026;49.446;8.576;2023-02-28T01:27:49;123.18;;;107.45;;
38226;SDS011;24026;49.446;8.576;2023-02-28T01:30:10;121.45;;;105.32;;
38226;SDS011;24026;49.446;8.576;2023-02-28T01:32:31;121.38;;;107.70;;
38226;SDS011;24026;49.446;8.576;2023-02-28T01:34:51;120.28;;;106.50;;
38226;SDS011;24026;49.446;8.576;2023-02-28T01:37:12;119.60;;;106.40;;
38226;SDS011;24026;49.446;8.576;2023-02-28T01:39:32;119.93;;;105.82;;
38226;SDS011;24026;49.446;8.576;2023-02-28T01:41:52;121.22;;;107.82;;
38226;SDS011;24026;49.446;8.576;2023-02-28T01:47:10;120.70;;;106.50;;
38226;SDS011;24026;49.446;8.576;2023-02-28T01:49:30;119.70;;;105.15;;
38226;SDS011;24026;49.446;8.576;2023-02-28T01:51:52;121.40;;;107.40;;
38226;SDS011;24026;49.446;8.576;2023-02-28T01:54:15;120.85;;;106.78;;
38226;SDS011;24026;49.446;8.576;2023-02-28T01:56:42;120.65;;;105.25;;
38226;SDS011;24026;49.446;8.576;2023-02-28T01:59:06;118.70;;;104.77;;
38226;SDS011;24026;49.446;8.576;2023-02-28T02:01:27;121.20;;;107.05;;
38226;SDS011;24026;49.446;8.576;2023-02-28T02:03:53;122.82;;;106.18;;
38226;SDS011;24026;49.446;8.576;2023-02-28T02:06:15;117.85;;;103.32;;
38226;SDS011;24026;49.446;8.576;2023-02-28T02:08:36;118.75;;;105.45;;
38226;SDS011;24026;49.446;8.576;2023-02-28T02:10:58;121.80;;;106.60;;
38226;SDS011;24026;49.446;8.576;2023-02-28T02:24:00;119.32;;;104.25;;
38226;SDS011;24026;49.446;8.576;2023-02-28T02:29:50;120.45;;;105.00;;
38226;SDS011;24026;49.446;8.576;2023-02-28T02:35:21;119.07;;;105.32;;
38226;SDS011;24026;49.446;8.576;2023-02-28T02:40:35;118.32;;;102.78;;
38226;SDS011;24026;49.446;8.576;2023-02-28T02:43:07;117.35;;;102.68;;
38226;SDS011;24026;49.446;8.576;2023-02-28T02:48:35;117.25;;;103.70;;
38226;SDS011;24026;49.446;8.576;2023-02-28T02:51:04;117.47;;;104.50;;
38226;SDS011;24026;49.446;8.576;2023-02-28T02:53:36;118.22;;;102.90;;
38226;SDS011;24026;49.446;8.576;2023-02-28T02:56:01;117.65;;;104.63;;
38226;SDS011;24026;49.446;8.576;2023-02-28T02:58:28;116.25;;;100.85;;
38226;SDS011;24026;49.446;8.576;2023-02-28T03:00:52;118.60;;;105.05;;
38226;SDS011;24026;49.446;8.576;2023-02-28T03:03:16;117.97;;;104.45;;
38226;SDS011;24026;49.446;8.576;2023-02-28T03:05:47;117.32;;;103.53;;
38226;SDS011;24026;49.446;8.576;2023-02-28T03:08:10;118.32;;;104.85;;
38226;SDS011;24026;49.446;8.576;2023-02-28T03:10:35;118.40;;;105.03;;
38226;SDS011;24026;49.446;8.576;2023-02-28T03:15:34;118.47;;;103.00;;
38226;SDS011;24026;49.446;8.576;2023-02-28T03:18:24;116.00;;;99.90;;
38226;SDS011;24026;49.446;8.576;2023-02-28T03:23:59;114.90;;;99.78;;
38226;SDS011;24026;49.446;8.576;2023-02-28T03:26:26;118.43;;;103.78;;
38226;SDS011;24026;49.446;8.576;2023-02-28T03:28:53;115.45;;;102.10;;
38226;SDS011;24026;49.446;8.576;2023-02-28T03:31:38;117.30;;;103.72;;
38226;SDS011;24026;49.446;8.576;2023-02-28T03:34:03;115.18;;;101.97;;
38226;SDS011;24026;49.446;8.576;2023-02-28T03:36:29;117.13;;;104.07;;
38226;SDS011;24026;49.446;8.576;2023-02-28T03:38:55;116.68;;;103.13;;
38226;SDS011;24026;49.446;8.576;2023-02-28T03:41:23;115.90;;;102.18;;
38226;SDS011;24026;49.446;8.576;2023-02-28T03:43:50;116.90;;;102.90;;
38226;SDS011;24026;49.446;8.576;2023-02-28T03:46:17;115.00;;;101.38;;
38226;SDS011;24026;49.446;8.576;2023-02-28T03:48:45;115.32;;;102.38;;
38226;SDS011;24026;49.446;8.576;2023-02-28T03:51:27;116.72;;;103.28;;
38226;SDS011;24026;49.446;8.576;2023-02-28T03:53:53;116.65;;;102.15;;
38226;SDS011;24026;49.446;8.576;2023-02-28T03:56:21;117.70;;;104.43;;
38226;SDS011;24026;49.446;8.576;2023-02-28T03:58:56;116.43;;;103.50;;
38226;SDS011;24026;49.446;8.576;2023-02-28T04:01:23;117.63;;;102.10;;
38226;SDS011;24026;49.446;8.576;2023-02-28T04:03:50;118.07;;;104.10;;
38226;SDS011;24026;49.446;8.576;2023-02-28T04:06:17;116.20;;;101.28;;
38226;SDS011;24026;49.446;8.576;2023-02-28T04:08:40;116.30;;;102.60;;
38226;SDS011;24026;49.446;8.576;2023-02-28T04:11:01;115.53;;;102.07;;
38226;SDS011;24026;49.446;8.576;2023-02-28T04:13:26;116.05;;;102.53;;
38226;SDS011;24026;49.446;8.576;2023-02-28T04:15:47;116.18;;;103.35;;
38226;SDS011;24026;49.446;8.576;2023-02-28T04:18:07;116.80;;;103.88;;
38226;SDS011;24026;49.446;8.576;2023-02-28T04:20:28;117.53;;;102.57;;
38226;SDS011;24026;49.446;8.576;2023-02-28T04:22:48;116.82;;;103.40;;
38226;SDS011;24026;49.446;8.576;2023-02-28T04:25:09;116.05;;;101.70;;
38226;SDS011;24026;49.446;8.576;2023-02-28T04:27:29;114.95;;;102.25;;
38226;SDS011;24026;49.446;8.576;2023-02-28T04:29:49;115.18;;;102.38;;
38226;SDS011;24026;49.446;8.576;2023-02-28T04:32:10;115.35;;;102.30;;
38226;SDS011;24026;49.446;8.576;2023-02-28T04:34:31;116.00;;;103.22;;
38226;SDS011;24026;49.446;8.576;2023-02-28T04:36:52;115.95;;;103.07;;
38226;SDS011;24026;49.446;8.576;2023-02-28T04:39:15;115.55;;;101.15;;
38226;SDS011;24026;49.446;8.576;2023-02-28T04:41:38;114.13;;;99.82;;
38226;SDS011;24026;49.446;8.576;2023-02-28T04:43:58;115.93;;;102.60;;
38226;SDS011;24026;49.446;8.576;2023-02-28T04:46:19;115.15;;;101.60;;
38226;SDS011;24026;49.446;8.576;2023-02-28T04:48:41;115.53;;;101.55;;
38226;SDS011;24026;49.446;8.576;2023-02-28T04:51:05;116.70;;;103.57;;
38226;SDS011;24026;49.446;8.576;2023-02-28T04:53:28;114.75;;;102.00;;
38226;SDS011;24026;49.446;8.576;2023-02-28T04:55:49;114.97;;;102.18;;
38226;SDS011;24026;49.446;8.576;2023-02-28T04:58:09;115.90;;;101.63;;
38226;SDS011;24026;49.446;8.576;2023-02-28T05:00:29;115.35;;;100.45;;
38226;SDS011;24026;49.446;8.576;2023-02-28T05:02:50;116.53;;;102.70;;
38226;SDS011;24026;49.446;8.576;2023-02-28T05:05:10;117.70;;;102.50;;
38226;SDS011;24026;49.446;8.576;2023-02-28T05:07:36;113.72;;;99.07;;
38226;SDS011;24026;49.446;8.576;2023-02-28T05:09:56;115.45;;;102.55;;
38226;SDS011;24026;49.446;8.576;2023-02-28T05:12:17;117.10;;;102.65;;
38226;SDS011;24026;49.446;8.576;2023-02-28T05:14:37;116.25;;;102.00;;
38226;SDS011;24026;49.446;8.576;2023-02-28T05:16:58;118.55;;;101.50;;
38226;SDS011;24026;49.446;8.576;2023-02-28T05:19:18;114.95;;;102.35;;
38226;SDS011;24026;49.446;8.576;2023-02-28T05:21:47;115.30;;;102.40;;
38226;SDS011;24026;49.446;8.576;2023-02-28T05:24:11;116.25;;;103.47;;
38226;SDS011;24026;49.446;8.576;2023-02-28T05:26:34;114.78;;;101.78;;
38226;SDS011;24026;49.446;8.576;2023-02-28T05:28:56;117.53;;;101.32;;
38226;SDS011;24026;49.446;8.576;2023-02-28T05:31:16;117.28;;;104.30;;
38226;SDS011;24026;49.446;8.576;2023-02-28T05:33:37;117.90;;;105.07;;
38226;SDS011;24026;49.446;8.576;2023-02-28T05:35:58;117.63;;;104.75;;
38226;SDS011;24026;49.446;8.576;2023-02-28T05:38:18;117.90;;;105.07;;
38226;SDS011;24026;49.446;8.576;2023-02-28T05:40:39;119.38;;;106.55;;
38226;SDS011;24026;49.446;8.576;2023-02-28T05:43:00;119.95;;;107.07;;
38226;SDS011;24026;49.446;8.576;2023-02-28T05:45:21;120.03;;;107.18;;
38226;SDS011;24026;49.446;8.576;2023-02-28T05:47:41;120.20;;;107.13;;
38226;SDS011;24026;49.446;8.576;2023-02-28T05:50:02;118.90;;;106.05;;
38226;SDS011;24026;49.446;8.576;2023-02-28T05:52:23;122.10;;;108.93;;
38226;SDS011;24026;49.446;8.576;2023-02-28T05:54:43;119.47;;;106.55;;
38226;SDS011;24026;49.446;8.576;2023-02-28T05:57:05;122.93;;;109.72;;
38226;SDS011;24026;49.446;8.576;2023-02-28T05:59:26;121.13;;;108.03;;
38226;SDS011;24026;49.446;8.576;2023-02-28T06:01:46;121.95;;;108.88;;
38226;SDS011;24026;49.446;8.576;2023-02-28T06:04:10;124.07;;;110.97;;
38226;SDS011;24026;49.446;8.576;2023-02-28T06:06:31;123.38;;;110.07;;
38226;SDS011;24026;49.446;8.576;2023-02-28T06:08:54;123.53;;;110.43;;
38226;SDS011;24026;49.446;8.576;2023-02-28T06:11:14;123.38;;;110.38;;
38226;SDS011;24026;49.446;8.576;2023-02-28T06:13:35;123.00;;;110.05;;
38226;SDS011;24026;49.446;8.576;2023-02-28T06:15:56;121.38;;;108.50;;
38226;SDS011;24026;49.446;8.576;2023-02-28T06:18:16;123.75;;;110.68;;
38226;SDS011;24026;49.446;8.576;2023-02-28T06:20:37;123.75;;;110.75;;
38226;SDS011;24026;49.446;8.576;2023-02-28T06:22:58;121.53;;;108.55;;
38226;SDS011;24026;49.446;8.576;2023-02-28T06:25:18;124.63;;;111.45;;
38226;SDS011;24026;49.446;8.576;2023-02-28T06:27:39;125.57;;;112.40;;
38226;SDS011;24026;49.446;8.576;2023-02-28T06:29:59;122.70;;;109.50;;
38226;SDS011;24026;49.446;8.576;2023-02-28T06:32:20;127.55;;;113.95;;
38226;SDS011;24026;49.446;8.576;2023-02-28T06:34:40;124.03;;;110.90;;
38226;SDS011;24026;49.446;8.576;2023-02-28T06:37:01;122.90;;;109.65;;
38226;SDS011;24026;49.446;8.576;2023-02-28T06:39:22;126.95;;;113.35;;
38226;SDS011;24026;49.446;8.576;2023-02-28T06:41:42;126.68;;;112.93;;
38226;SDS011;24026;49.446;8.576;2023-02-28T06:44:08;127.80;;;114.10;;
38226;SDS011;24026;49.446;8.576;2023-02-28T06:48:52;126.95;;;112.97;;
38226;SDS011;24026;49.446;8.576;2023-02-28T06:51:14;127.18;;;112.53;;
38226;SDS011;24026;49.446;8.576;2023-02-28T06:53:37;130.75;;;116.38;;
38226;SDS011;24026;49.446;8.576;2023-02-28T06:55:58;130.98;;;116.75;;
38226;SDS011;24026;49.446;8.576;2023-02-28T06:58:19;133.73;;;117.82;;
38226;SDS011;24026;49.446;8.576;2023-02-28T07:00:39;128.73;;;114.53;;
38226;SDS011;24026;49.446;8.576;2023-02-28T07:03:03;132.45;;;118.15;;
38226;SDS011;24026;49.446;8.576;2023-02-28T07:05:24;131.60;;;116.88;;
38226;SDS011;24026;49.446;8.576;2023-02-28T07:07:44;128.13;;;113.68;;
38226;SDS011;24026;49.446;8.576;2023-02-28T07:10:06;131.02;;;117.15;;
38226;SDS011;24026;49.446;8.576;2023-02-28T07:12:27;129.43;;;115.30;;
38226;SDS011;24026;49.446;8.576;2023-02-28T07:14:48;131.73;;;117.47;;
38226;SDS011;24026;49.446;8.576;2023-02-28T07:17:09;132.02;;;117.60;;
38226;SDS011;24026;49.446;8.576;2023-02-28T07:19:31;131.43;;;116.93;;
38226;SDS011;24026;49.446;8.576;2023-02-28T07:21:52;132.48;;;118.07;;
38226;SDS011;24026;49.446;8.576;2023-02-28T07:24:12;133.30;;;119.10;;
38226;SDS011;24026;49.446;8.576;2023-02-28T07:26:35;134.20;;;119.53;;
38226;SDS011;24026;49.446;8.576;2023-02-28T07:28:56;132.82;;;118.22;;
38226;SDS011;24026;49.446;8.576;2023-02-28T07:31:16;134.05;;;117.93;;
38226;SDS011;24026;49.446;8.576;2023-02-28T07:33:38;137.23;;;119.10;;
38226;SDS011;24026;49.446;8.576;2023-02-28T07:36:03;139.68;;;120.40;;
38226;SDS011;24026;49.446;8.576;2023-02-28T07:38:25;135.85;;;118.00;;
38226;SDS011;24026;49.446;8.576;2023-02-28T07:40:45;140.45;;;121.45;;
38226;SDS011;24026;49.446;8.576;2023-02-28T07:43:05;135.48;;;117.28;;
38226;SDS011;24026;49.446;8.576;2023-02-28T07:45:26;134.38;;;120.15;;
38226;SDS011;24026;49.446;8.576;2023-02-28T07:47:48;137.75;;;119.97;;
38226;SDS011;24026;49.446;8.576;2023-02-28T07:50:10;144.10;;;118.80;;
38226;SDS011;24026;49.446;8.576;2023-02-28T07:52:32;137.77;;;122.20;;
38226;SDS011;24026;49.446;8.576;2023-02-28T07:54:52;141.57;;;123.82;;
38226;SDS011;24026;49.446;8.576;2023-02-28T07:57:12;141.40;;;119.38;;
38226;SDS011;24026;49.446;8.576;2023-02-28T07:59:33;141.25;;;122.55;;
38226;SDS011;24026;49.446;8.576;2023-02-28T08:01:53;142.23;;;123.80;;
38226;SDS011;24026;49.446;8.576;2023-02-28T08:04:13;136.48;;;121.20;;
38226;SDS011;24026;49.446;8.576;2023-02-28T08:06:34;140.65;;;124.95;;
38226;SDS011;24026;49.446;8.576;2023-02-28T08:08:55;137.70;;;122.03;;
38226;SDS011;24026;49.446;8.576;2023-02-28T08:11:16;138.73;;;123.68;;
38226;SDS011;24026;49.446;8.576;2023-02-28T08:13:37;134.35;;;118.38;;
38226;SDS011;24026;49.446;8.576;2023-02-28T08:15:58;139.88;;;124.95;;
38226;SDS011;24026;49.446;8.576;2023-02-28T08:18:22;138.45;;;123.60;;
38226;SDS011;24026;49.446;8.576;2023-02-28T08:20:43;139.05;;;123.30;;
38226;SDS011;24026;49.446;8.576;2023-02-28T08:23:03;137.27;;;121.75;;
38226;SDS011;24026;49.446;8.576;2023-02-28T08:25:23;135.57;;;120.75;;
38226;SDS011;24026;49.446;8.576;2023-02-28T08:27:44;136.00;;;121.32;;
38226;SDS011;24026;49.446;8.576;2023-02-28T08:30:04;137.25;;;122.25;;
38226;SDS011;24026;49.446;8.576;2023-02-28T08:32:25;135.57;;;120.13;;
38226;SDS011;24026;49.446;8.576;2023-02-28T08:34:46;137.55;;;122.40;;
38226;SDS011;24026;49.446;8.576;2023-02-28T08:37:07;137.00;;;122.15;;
38226;SDS011;24026;49.446;8.576;2023-02-28T08:39:27;136.63;;;122.03;;
38226;SDS011;24026;49.446;8.576;2023-02-28T08:41:47;136.98;;;122.43;;
38226;SDS011;24026;49.446;8.576;2023-02-28T08:44:08;133.93;;;118.65;;
38226;SDS011;24026;49.446;8.576;2023-02-28T08:46:28;135.95;;;121.43;;
38226;SDS011;24026;49.446;8.576;2023-02-28T08:48:51;138.65;;;123.55;;
38226;SDS011;24026;49.446;8.576;2023-02-28T08:51:15;133.68;;;118.82;;
38226;SDS011;24026;49.446;8.576;2023-02-28T08:53:41;135.68;;;120.80;;
38226;SDS011;24026;49.446;8.576;2023-02-28T08:56:09;135.98;;;121.28;;
38226;SDS011;24026;49.446;8.576;2023-02-28T08:58:31;135.05;;;120.40;;
38226;SDS011;24026;49.446;8.576;2023-02-28T09:00:51;138.45;;;123.05;;
38226;SDS011;24026;49.446;8.576;2023-02-28T09:03:12;139.18;;;123.88;;
38226;SDS011;24026;49.446;8.576;2023-02-28T09:05:32;139.23;;;123.88;;
38226;SDS011;24026;49.446;8.576;2023-02-28T09:07:53;139.73;;;120.00;;
38226;SDS011;24026;49.446;8.576;2023-02-28T09:10:13;137.15;;;122.60;;
38226;SDS011;24026;49.446;8.576;2023-02-28T09:12:34;139.20;;;122.97;;
38226;SDS011;24026;49.446;8.576;2023-02-28T09:14:55;138.82;;;123.55;;
38226;SDS011;24026;49.446;8.576;2023-02-28T09:17:16;139.13;;;121.97;;
38226;SDS011;24026;49.446;8.576;2023-02-28T09:19:36;141.00;;;125.88;;
38226;SDS011;24026;49.446;8.576;2023-02-28T09:21:57;139.98;;;124.45;;
38226;SDS011;24026;49.446;8.576;2023-02-28T09:24:17;140.35;;;124.25;;
38226;SDS011;24026;49.446;8.576;2023-02-28T09:26:38;141.27;;;126.13;;
38226;SDS011;24026;49.446;8.576;2023-02-28T09:28:58;147.63;;;126.63;;
38226;SDS011;24026;49.446;8.576;2023-02-28T09:31:20;142.82;;;127.03;;
38226;SDS011;24026;49.446;8.576;2023-02-28T09:33:42;142.15;;;126.90;;
38226;SDS011;24026;49.446;8.576;2023-02-28T09:36:03;145.57;;;129.75;;
38226;SDS011;24026;49.446;8.576;2023-02-28T09:38:24;144.45;;;128.68;;
38226;SDS011;24026;49.446;8.576;2023-02-28T09:40:50;142.93;;;127.53;;
38226;SDS011;24026;49.446;8.576;2023-02-28T09:43:14;144.60;;;128.80;;
38226;SDS011;24026;49.446;8.576;2023-02-28T09:45:36;145.52;;;129.73;;
38226;SDS011;24026;49.446;8.576;2023-02-28T09:48:04;147.43;;;131.65;;
38226;SDS011;24026;49.446;8.576;2023-02-28T09:50:33;147.82;;;131.70;;
38226;SDS011;24026;49.446;8.576;2023-02-28T09:52:58;146.43;;;130.88;;
38226;SDS011;24026;49.446;8.576;2023-02-28T09:55:27;148.40;;;131.48;;
38226;SDS011;24026;49.446;8.576;2023-02-28T09:58:00;149.48;;;133.27;;
38226;SDS011;24026;49.446;8.576;2023-02-28T10:00:33;147.85;;;131.82;;
38226;SDS011;24026;49.446;8.576;2023-02-28T10:08:30;148.80;;;132.63;;
38226;SDS011;24026;49.446;8.576;2023-02-28T10:10:57;152.15;;;133.95;;
38226;SDS011;24026;49.446;8.576;2023-02-28T10:15:46;154.07;;;135.10;;
38226;SDS011;24026;49.446;8.576;2023-02-28T10:18:11;151.18;;;134.65;;
38226;SDS011;24026;49.446;8.576;2023-02-28T10:25:37;149.95;;;133.45;;
38226;SDS011;24026;49.446;8.576;2023-02-28T10:28:05;151.73;;;133.50;;
38226;SDS011;24026;49.446;8.576;2023-02-28T10:30:30;150.50;;;133.50;;
38226;SDS011;24026;49.446;8.576;2023-02-28T10:32:52;152.55;;;132.77;;
38226;SDS011;24026;49.446;8.576;2023-02-28T10:37:39;154.02;;;136.95;;
38226;SDS011;24026;49.446;8.576;2023-02-28T10:40:00;154.30;;;136.88;;
38226;SDS011;24026;49.446;8.576;2023-02-28T10:42:25;160.50;;;137.18;;
38226;SDS011;24026;49.446;8.576;2023-02-28T10:44:47;158.80;;;139.20;;
38226;SDS011;24026;49.446;8.576;2023-02-28T10:47:12;156.30;;;139.15;;
38226;SDS011;24026;49.446;8.576;2023-02-28T10:49:36;158.10;;;141.32;;
38226;SDS011;24026;49.446;8.576;2023-02-28T10:51:59;160.18;;;142.52;;
38226;SDS011;24026;49.446;8.576;2023-02-28T10:54:31;161.73;;;144.02;;
38226;SDS011;24026;49.446;8.576;2023-02-28T10:57:17;161.63;;;144.50;;
38226;SDS011;24026;49.446;8.576;2023-02-28T10:59:39;167.73;;;145.38;;
38226;SDS011;24026;49.446;8.576;2023-02-28T11:02:00;164.38;;;146.45;;
38226;SDS011;24026;49.446;8.576;2023-02-28T11:06:59;164.95;;;147.00;;
38226;SDS011;24026;49.446;8.576;2023-02-28T11:09:27;163.75;;;146.07;;
38226;SDS011;24026;49.446;8.576;2023-02-28T11:11:50;165.98;;;147.98;;
38226;SDS011;24026;49.446;8.576;2023-02-28T11:14:31;168.32;;;147.90;;
38226;SDS011;24026;49.446;8.576;2023-02-28T11:16:55;162.77;;;144.95;;
38226;SDS011;24026;49.446;8.576;2023-02-28T11:19:24;173.27;;;146.20;;
38226;SDS011;24026;49.446;8.576;2023-02-28T11:26:55;172.63;;;148.10;;
38226;SDS011;24026;49.446;8.576;2023-02-28T11:29:18;165.15;;;147.07;;
38226;SDS011;24026;49.446;8.576;2023-02-28T11:31:41;174.60;;;148.25;;
38226;SDS011;24026;49.446;8.576;2023-02-28T11:34:07;173.60;;;148.18;;
38226;SDS011;24026;49.446;8.576;2023-02-28T11:36:47;177.48;;;148.25;;
38226;SDS011;24026;49.446;8.576;2023-02-28T11:39:15;180.82;;;149.38;;
38226;SDS011;24026;49.446;8.576;2023-02-28T11:47:05;179.20;;;149.65;;
38226;SDS011;24026;49.446;8.576;2023-02-28T11:49:42;175.25;;;146.48;;
38226;SDS011;24026;49.446;8.576;2023-02-28T11:52:38;171.98;;;147.13;;
38226;SDS011;24026;49.446;8.576;2023-02-28T11:55:14;172.02;;;144.68;;
38226;SDS011;24026;49.446;8.576;2023-02-28T11:57:52;166.80;;;143.18;;
38226;SDS011;24026;49.446;8.576;2023-02-28T12:06:15;170.57;;;145.88;;
38226;SDS011;24026;49.446;8.576;2023-02-28T12:16:38;168.52;;;146.13;;
38226;SDS011;24026;49.446;8.576;2023-02-28T12:21:47;165.82;;;144.95;;
38226;SDS011;24026;49.446;8.576;2023-02-28T12:26:56;163.10;;;143.75;;
38226;SDS011;24026;49.446;8.576;2023-02-28T12:29:24;161.88;;;142.25;;
38226;SDS011;24026;49.446;8.576;2023-02-28T12:31:55;168.00;;;141.50;;
38226;SDS011;24026;49.446;8.576;2023-02-28T12:34:20;169.45;;;144.10;;
38226;SDS011;24026;49.446;8.576;2023-02-28T12:36:45;167.97;;;143.10;;
38226;SDS011;24026;49.446;8.576;2023-02-28T12:39:11;172.93;;;144.40;;
38226;SDS011;24026;49.446;8.576;2023-02-28T12:41:42;174.70;;;144.18;;
38226;SDS011;24026;49.446;8.576;2023-02-28T12:44:19;173.52;;;144.75;;
38226;SDS011;24026;49.446;8.576;2023-02-28T12:46:47;168.50;;;145.65;;
38226;SDS011;24026;49.446;8.576;2023-02-28T12:49:33;166.07;;;146.73;;
38226;SDS011;24026;49.446;8.576;2023-02-28T12:51:54;169.10;;;143.73;;
38226;SDS011;24026;49.446;8.576;2023-02-28T12:56:59;167.93;;;146.95;;
38226;SDS011;24026;49.446;8.576;2023-02-28T13:07:43;167.13;;;148.10;;
38226;SDS011;24026;49.446;8.576;2023-02-28T13:10:08;165.20;;;146.95;;
38226;SDS011;24026;49.446;8.576;2023-02-28T13:12:29;167.57;;;147.88;;
38226;SDS011;24026;49.446;8.576;2023-02-28T13:14:50;173.65;;;148.85;;
38226;SDS011;24026;49.446;8.576;2023-02-28T13:17:21;165.43;;;147.15;;
38226;SDS011;24026;49.446;8.576;2023-02-28T13:24:39;164.20;;;143.70;;
38226;SDS011;24026;49.446;8.576;2023-02-28T13:29:32;165.85;;;145.50;;
38226;SDS011;24026;49.446;8.576;2023-02-28T13:34:28;165.63;;;144.70;;
38226;SDS011;24026;49.446;8.576;2023-02-28T13:36:48;163.73;;;144.43;;
38226;SDS011;24026;49.446;8.576;2023-02-28T13:41:54;162.68;;;140.20;;
38226;SDS011;24026;49.446;8.576;2023-02-28T13:44:20;159.55;;;142.02;;
38226;SDS011;24026;49.446;8.576;2023-02-28T13:51:46;159.57;;;142.00;;
38226;SDS011;24026;49.446;8.576;2023-02-28T13:56:45;158.68;;;141.45;;
38226;SDS011;24026;49.446;8.576;2023-02-28T14:07:22;165.25;;;142.75;;
38226;SDS011;24026;49.446;8.576;2023-02-28T14:09:46;158.77;;;141.57;;
38226;SDS011;24026;49.446;8.576;2023-02-28T14:17:51;157.38;;;139.63;;
38226;SDS011;24026;49.446;8.576;2023-02-28T14:20:16;156.27;;;139.38;;
38226;SDS011;24026;49.446;8.576;2023-02-28T14:25:33;156.80;;;139.55;;
38226;SDS011;24026;49.446;8.576;2023-02-28T14:31:00;157.98;;;140.52;;
38226;SDS011;24026;49.446;8.576;2023-02-28T14:36:17;154.77;;;137.93;;
38226;SDS011;24026;49.446;8.576;2023-02-28T14:38:45;162.10;;;138.48;;
38226;SDS011;24026;49.446;8.576;2023-02-28T14:41:16;156.00;;;139.32;;
38226;SDS011;24026;49.446;8.576;2023-02-28T14:43:47;156.15;;;138.98;;
38226;SDS011;24026;49.446;8.576;2023-02-28T14:46:13;157.27;;;138.57;;
38226;SDS011;24026;49.446;8.576;2023-02-28T14:48:34;156.32;;;136.75;;
38226;SDS011;24026;49.446;8.576;2023-02-28T14:50:59;153.52;;;136.73;;
38226;SDS011;24026;49.446;8.576;2023-02-28T14:53:21;150.35;;;133.77;;
38226;SDS011;24026;49.446;8.576;2023-02-28T14:55:46;155.10;;;133.63;;
38226;SDS011;24026;49.446;8.576;2023-02-28T14:58:17;148.57;;;132.43;;
38226;SDS011;24026;49.446;8.576;2023-02-28T15:00:48;146.98;;;130.38;;
38226;SDS011;24026;49.446;8.576;2023-02-28T15:03:20;150.38;;;129.07;;
38226;SDS011;24026;49.446;8.576;2023-02-28T15:05:40;148.05;;;129.98;;
38226;SDS011;24026;49.446;8.576;2023-02-28T15:08:12;142.98;;;127.07;;
38226;SDS011;24026;49.446;8.576;2023-02-28T15:10:35;141.68;;;126.50;;
38226;SDS011;24026;49.446;8.576;2023-02-28T15:12:57;140.38;;;124.95;;
38226;SDS011;24026;49.446;8.576;2023-02-28T15:15:27;142.73;;;126.78;;
38226;SDS011;24026;49.446;8.576;2023-02-28T15:17:54;142.80;;;127.20;;
38226;SDS011;24026;49.446;8.576;2023-02-28T15:20:17;146.52;;;126.65;;
38226;SDS011;24026;49.446;8.576;2023-02-28T15:22:38;143.50;;;127.75;;
38226;SDS011;24026;49.446;8.576;2023-02-28T15:25:00;145.43;;;130.02;;
38226;SDS011;24026;49.446;8.576;2023-02-28T15:27:25;145.98;;;130.60;;
38226;SDS011;24026;49.446;8.576;2023-02-28T15:29:50;147.45;;;131.95;;
38226;SDS011;24026;49.446;8.576;2023-02-28T15:34:46;146.85;;;131.38;;
38226;SDS011;24026;49.446;8.576;2023-02-28T15:39:46;144.80;;;129.85;;
38226;SDS011;24026;49.446;8.576;2023-02-28T15:42:18;146.68;;;131.05;;
38226;SDS011;24026;49.446;8.576;2023-02-28T15:44:40;146.25;;;130.68;;
38226;SDS011;24026;49.446;8.576;2023-02-28T15:47:04;147.88;;;132.10;;
38226;SDS011;24026;49.446;8.576;2023-02-28T15:49:39;147.43;;;131.65;;
38226;SDS011;24026;49.446;8.576;2023-02-28T15:52:05;149.05;;;132.88;;
38226;SDS011;24026;49.446;8.576;2023-02-28T15:54:33;148.77;;;132.82;;
38226;SDS011;24026;49.446;8.576;2023-02-28T15:56:58;148.48;;;132.43;;